sensor_id;sensor_type;location;lat;lon;timestamp;P1;durP1;ratioP1;P2;durP2;ratioP2
49131;SDS011;35149;51.196;6.204;2023-05-09T00:02:26;33.17;;;22.50;;
49131;SDS011;35149;51.196;6.204;2023-05-09T00:04:58;32.85;;;22.10;;
49131;SDS011;35149;51.196;6.204;2023-05-09T00:07:29;32.30;;;21.38;;
49131;SDS011;35149;51.196;6.204;2023-05-09T00:10:05;38.13;;;24.52;;
49131;SDS011;35149;51.196;6.204;2023-05-09T00:12:37;31.27;;;22.05;;
49131;SDS011;35149;51.196;6.204;2023-05-09T00:15:04;34.42;;;24.27;;
49131;SDS011;35149;51.196;6.204;2023-05-09T00:17:35;31.98;;;21.90;;
49131;SDS011;35149;51.196;6.204;2023-05-09T00:20:06;34.65;;;20.88;;
49131;SDS011;35149;51.196;6.204;2023-05-09T00:22:37;33.00;;;22.80;;
49131;SDS011;35149;51.196;6.204;2023-05-09T00:25:06;32.38;;;21.23;;
49131;SDS011;35149;51.196;6.204;2023-05-09T00:27:35;33.90;;;22.67;;
49131;SDS011;35149;51.196;6.204;2023-05-09T00:30:05;29.25;;;20.70;;
49131;SDS011;35149;51.196;6.204;2023-05-09T00:32:33;30.10;;;19.88;;
49131;SDS011;35149;51.196;6.204;2023-05-09T00:35:02;25.17;;;18.45;;
49131;SDS011;35149;51.196;6.204;2023-05-09T00:37:29;26.80;;;20.52;;
49131;SDS011;35149;51.196;6.204;2023-05-09T00:39:59;33.78;;;22.17;;
49131;SDS011;35149;51.196;6.204;2023-05-09T00:42:30;29.58;;;20.58;;
49131;SDS011;35149;51.196;6.204;2023-05-09T00:45:02;29.80;;;19.90;;
49131;SDS011;35149;51.196;6.204;2023-05-09T00:47:32;30.30;;;20.40;;
49131;SDS011;35149;51.196;6.204;2023-05-09T00:49:59;28.05;;;19.30;;
49131;SDS011;35149;51.196;6.204;2023-05-09T00:52:28;29.45;;;20.60;;
49131;SDS011;35149;51.196;6.204;2023-05-09T00:54:55;32.72;;;23.02;;
49131;SDS011;35149;51.196;6.204;2023-05-09T00:57:22;29.75;;;21.55;;
49131;SDS011;35149;51.196;6.204;2023-05-09T00:59:49;30.38;;;20.30;;
49131;SDS011;35149;51.196;6.204;2023-05-09T01:02:16;31.27;;;20.90;;
49131;SDS011;35149;51.196;6.204;2023-05-09T01:04:48;29.15;;;19.95;;
49131;SDS011;35149;51.196;6.204;2023-05-09T01:07:32;30.80;;;19.92;;
49131;SDS011;35149;51.196;6.204;2023-05-09T01:13:03;27.45;;;18.38;;
49131;SDS011;35149;51.196;6.204;2023-05-09T01:15:45;26.58;;;18.55;;
49131;SDS011;35149;51.196;6.204;2023-05-09T01:18:25;31.23;;;19.60;;
49131;SDS011;35149;51.196;6.204;2023-05-09T01:21:05;28.15;;;19.35;;
49131;SDS011;35149;51.196;6.204;2023-05-09T01:23:58;26.80;;;18.17;;
49131;SDS011;35149;51.196;6.204;2023-05-09T01:26:59;28.08;;;17.83;;
49131;SDS011;35149;51.196;6.204;2023-05-09T01:29:47;26.65;;;19.88;;
49131;SDS011;35149;51.196;6.204;2023-05-09T01:32:18;25.88;;;18.42;;
49131;SDS011;35149;51.196;6.204;2023-05-09T01:34:53;23.30;;;17.20;;
49131;SDS011;35149;51.196;6.204;2023-05-09T01:37:29;23.30;;;16.90;;
49131;SDS011;35149;51.196;6.204;2023-05-09T01:40:00;24.13;;;18.50;;
49131;SDS011;35149;51.196;6.204;2023-05-09T01:42:39;22.80;;;17.30;;
49131;SDS011;35149;51.196;6.204;2023-05-09T01:45:15;26.83;;;17.48;;
49131;SDS011;35149;51.196;6.204;2023-05-09T01:47:45;22.70;;;16.42;;
49131;SDS011;35149;51.196;6.204;2023-05-09T01:50:17;20.27;;;14.93;;
49131;SDS011;35149;51.196;6.204;2023-05-09T01:52:45;20.27;;;16.38;;
49131;SDS011;35149;51.196;6.204;2023-05-09T01:55:14;23.02;;;15.25;;
49131;SDS011;35149;51.196;6.204;2023-05-09T01:57:47;21.35;;;15.20;;
49131;SDS011;35149;51.196;6.204;2023-05-09T02:00:19;21.30;;;15.30;;
49131;SDS011;35149;51.196;6.204;2023-05-09T02:02:51;22.00;;;15.63;;
49131;SDS011;35149;51.196;6.204;2023-05-09T02:05:20;17.55;;;14.07;;
49131;SDS011;35149;51.196;6.204;2023-05-09T02:07:51;21.40;;;15.02;;
49131;SDS011;35149;51.196;6.204;2023-05-09T02:10:19;20.95;;;14.63;;
49131;SDS011;35149;51.196;6.204;2023-05-09T02:12:50;18.45;;;14.27;;
49131;SDS011;35149;51.196;6.204;2023-05-09T02:15:25;18.63;;;14.90;;
49131;SDS011;35149;51.196;6.204;2023-05-09T02:17:56;19.25;;;14.10;;
49131;SDS011;35149;51.196;6.204;2023-05-09T02:20:25;21.00;;;15.45;;
49131;SDS011;35149;51.196;6.204;2023-05-09T02:22:58;18.10;;;13.85;;
49131;SDS011;35149;51.196;6.204;2023-05-09T02:25:24;18.55;;;15.50;;
49131;SDS011;35149;51.196;6.204;2023-05-09T02:27:51;19.15;;;14.80;;
49131;SDS011;35149;51.196;6.204;2023-05-09T02:30:23;19.30;;;15.33;;
49131;SDS011;35149;51.196;6.204;2023-05-09T02:32:58;22.95;;;15.23;;
49131;SDS011;35149;51.196;6.204;2023-05-09T02:35:28;19.17;;;15.05;;
49131;SDS011;35149;51.196;6.204;2023-05-09T02:37:57;21.08;;;15.93;;
49131;SDS011;35149;51.196;6.204;2023-05-09T02:40:27;17.88;;;13.93;;
49131;SDS011;35149;51.196;6.204;2023-05-09T02:42:58;18.80;;;14.60;;
49131;SDS011;35149;51.196;6.204;2023-05-09T02:45:27;20.60;;;14.88;;
49131;SDS011;35149;51.196;6.204;2023-05-09T02:47:55;19.98;;;14.85;;
49131;SDS011;35149;51.196;6.204;2023-05-09T02:50:27;18.88;;;13.77;;
49131;SDS011;35149;51.196;6.204;2023-05-09T02:52:55;18.55;;;14.90;;
49131;SDS011;35149;51.196;6.204;2023-05-09T02:55:24;20.08;;;14.52;;
49131;SDS011;35149;51.196;6.204;2023-05-09T02:57:50;19.25;;;14.70;;
49131;SDS011;35149;51.196;6.204;2023-05-09T03:00:37;19.88;;;13.85;;
49131;SDS011;35149;51.196;6.204;2023-05-09T03:03:05;19.05;;;13.82;;
49131;SDS011;35149;51.196;6.204;2023-05-09T03:05:34;20.35;;;14.63;;
49131;SDS011;35149;51.196;6.204;2023-05-09T03:08:05;18.83;;;14.65;;
49131;SDS011;35149;51.196;6.204;2023-05-09T03:10:33;19.52;;;14.02;;
49131;SDS011;35149;51.196;6.204;2023-05-09T03:12:59;17.50;;;13.50;;
49131;SDS011;35149;51.196;6.204;2023-05-09T03:15:29;20.15;;;14.70;;
49131;SDS011;35149;51.196;6.204;2023-05-09T03:17:58;19.73;;;14.15;;
49131;SDS011;35149;51.196;6.204;2023-05-09T03:20:32;20.52;;;14.10;;
49131;SDS011;35149;51.196;6.204;2023-05-09T03:23:01;20.02;;;14.95;;
49131;SDS011;35149;51.196;6.204;2023-05-09T03:25:32;19.88;;;13.82;;
49131;SDS011;35149;51.196;6.204;2023-05-09T03:28:02;18.02;;;13.13;;
49131;SDS011;35149;51.196;6.204;2023-05-09T03:30:30;19.63;;;14.07;;
49131;SDS011;35149;51.196;6.204;2023-05-09T03:33:02;18.02;;;14.18;;
49131;SDS011;35149;51.196;6.204;2023-05-09T03:35:33;17.88;;;13.88;;
49131;SDS011;35149;51.196;6.204;2023-05-09T03:38:03;16.70;;;13.32;;
49131;SDS011;35149;51.196;6.204;2023-05-09T03:40:40;18.90;;;14.25;;
49131;SDS011;35149;51.196;6.204;2023-05-09T03:43:09;15.00;;;12.90;;
49131;SDS011;35149;51.196;6.204;2023-05-09T03:45:36;19.33;;;14.05;;
49131;SDS011;35149;51.196;6.204;2023-05-09T03:48:05;16.55;;;13.02;;
49131;SDS011;35149;51.196;6.204;2023-05-09T03:50:37;17.35;;;13.90;;
49131;SDS011;35149;51.196;6.204;2023-05-09T03:53:06;18.40;;;14.20;;
49131;SDS011;35149;51.196;6.204;2023-05-09T03:55:40;18.60;;;14.77;;
49131;SDS011;35149;51.196;6.204;2023-05-09T03:58:11;18.65;;;13.90;;
49131;SDS011;35149;51.196;6.204;2023-05-09T04:00:41;15.48;;;13.77;;
49131;SDS011;35149;51.196;6.204;2023-05-09T04:03:13;19.05;;;14.38;;
49131;SDS011;35149;51.196;6.204;2023-05-09T04:05:45;16.98;;;14.27;;
49131;SDS011;35149;51.196;6.204;2023-05-09T04:08:24;18.05;;;13.32;;
49131;SDS011;35149;51.196;6.204;2023-05-09T04:11:01;18.17;;;13.05;;
49131;SDS011;35149;51.196;6.204;2023-05-09T04:13:35;16.95;;;13.38;;
49131;SDS011;35149;51.196;6.204;2023-05-09T04:16:09;18.40;;;13.90;;
49131;SDS011;35149;51.196;6.204;2023-05-09T04:18:35;17.73;;;14.32;;
49131;SDS011;35149;51.196;6.204;2023-05-09T04:21:05;19.33;;;14.15;;
49131;SDS011;35149;51.196;6.204;2023-05-09T04:23:34;17.92;;;14.18;;
49131;SDS011;35149;51.196;6.204;2023-05-09T04:26:01;17.52;;;13.50;;
49131;SDS011;35149;51.196;6.204;2023-05-09T04:28:28;17.20;;;14.23;;
49131;SDS011;35149;51.196;6.204;2023-05-09T04:30:55;18.20;;;13.25;;
49131;SDS011;35149;51.196;6.204;2023-05-09T04:33:22;21.08;;;14.82;;
49131;SDS011;35149;51.196;6.204;2023-05-09T04:35:50;17.98;;;13.85;;
49131;SDS011;35149;51.196;6.204;2023-05-09T04:38:17;18.55;;;14.63;;
49131;SDS011;35149;51.196;6.204;2023-05-09T04:40:44;18.38;;;14.18;;
49131;SDS011;35149;51.196;6.204;2023-05-09T04:43:11;15.73;;;13.23;;
49131;SDS011;35149;51.196;6.204;2023-05-09T04:45:37;15.75;;;12.93;;
49131;SDS011;35149;51.196;6.204;2023-05-09T04:48:06;19.08;;;13.45;;
49131;SDS011;35149;51.196;6.204;2023-05-09T04:50:33;19.90;;;13.35;;
49131;SDS011;35149;51.196;6.204;2023-05-09T04:53:01;19.05;;;13.82;;
49131;SDS011;35149;51.196;6.204;2023-05-09T04:55:28;19.00;;;14.70;;
49131;SDS011;35149;51.196;6.204;2023-05-09T04:57:55;20.70;;;14.93;;
49131;SDS011;35149;51.196;6.204;2023-05-09T05:00:22;17.63;;;13.75;;
49131;SDS011;35149;51.196;6.204;2023-05-09T05:02:49;17.33;;;13.27;;
49131;SDS011;35149;51.196;6.204;2023-05-09T05:05:16;21.05;;;14.80;;
49131;SDS011;35149;51.196;6.204;2023-05-09T05:07:51;18.00;;;14.15;;
49131;SDS011;35149;51.196;6.204;2023-05-09T05:10:21;17.75;;;13.48;;
49131;SDS011;35149;51.196;6.204;2023-05-09T05:12:53;17.80;;;13.88;;
49131;SDS011;35149;51.196;6.204;2023-05-09T05:15:21;20.55;;;14.60;;
49131;SDS011;35149;51.196;6.204;2023-05-09T05:17:48;18.30;;;13.57;;
49131;SDS011;35149;51.196;6.204;2023-05-09T05:20:19;19.55;;;14.13;;
49131;SDS011;35149;51.196;6.204;2023-05-09T05:22:46;18.67;;;13.55;;
49131;SDS011;35149;51.196;6.204;2023-05-09T05:25:12;20.15;;;14.57;;
49131;SDS011;35149;51.196;6.204;2023-05-09T05:27:41;18.10;;;13.82;;
49131;SDS011;35149;51.196;6.204;2023-05-09T05:30:10;22.73;;;16.95;;
49131;SDS011;35149;51.196;6.204;2023-05-09T05:32:37;20.33;;;15.13;;
49131;SDS011;35149;51.196;6.204;2023-05-09T05:35:04;20.35;;;16.70;;
49131;SDS011;35149;51.196;6.204;2023-05-09T05:37:34;19.25;;;15.73;;
49131;SDS011;35149;51.196;6.204;2023-05-09T05:40:01;20.02;;;15.43;;
49131;SDS011;35149;51.196;6.204;2023-05-09T05:42:28;20.55;;;15.85;;
49131;SDS011;35149;51.196;6.204;2023-05-09T05:44:56;22.27;;;15.82;;
49131;SDS011;35149;51.196;6.204;2023-05-09T05:47:23;24.80;;;18.15;;
49131;SDS011;35149;51.196;6.204;2023-05-09T05:49:50;20.63;;;16.08;;
49131;SDS011;35149;51.196;6.204;2023-05-09T05:52:17;20.73;;;15.95;;
49131;SDS011;35149;51.196;6.204;2023-05-09T05:54:43;24.52;;;17.80;;
49131;SDS011;35149;51.196;6.204;2023-05-09T05:57:10;23.83;;;17.85;;
49131;SDS011;35149;51.196;6.204;2023-05-09T05:59:37;24.30;;;17.92;;
49131;SDS011;35149;51.196;6.204;2023-05-09T06:02:04;24.98;;;18.83;;
49131;SDS011;35149;51.196;6.204;2023-05-09T06:04:35;26.70;;;19.98;;
49131;SDS011;35149;51.196;6.204;2023-05-09T06:07:02;27.13;;;18.55;;
49131;SDS011;35149;51.196;6.204;2023-05-09T06:09:29;24.08;;;19.05;;
49131;SDS011;35149;51.196;6.204;2023-05-09T06:11:55;24.83;;;19.13;;
49131;SDS011;35149;51.196;6.204;2023-05-09T06:14:23;26.55;;;19.50;;
49131;SDS011;35149;51.196;6.204;2023-05-09T06:16:50;27.02;;;20.17;;
49131;SDS011;35149;51.196;6.204;2023-05-09T06:19:17;29.25;;;18.83;;
49131;SDS011;35149;51.196;6.204;2023-05-09T06:21:46;28.13;;;20.00;;
49131;SDS011;35149;51.196;6.204;2023-05-09T06:24:13;27.25;;;19.85;;
49131;SDS011;35149;51.196;6.204;2023-05-09T06:26:57;27.17;;;19.20;;
49131;SDS011;35149;51.196;6.204;2023-05-09T06:29:23;25.17;;;19.55;;
49131;SDS011;35149;51.196;6.204;2023-05-09T06:31:50;28.38;;;20.27;;
49131;SDS011;35149;51.196;6.204;2023-05-09T06:34:17;29.70;;;21.52;;
49131;SDS011;35149;51.196;6.204;2023-05-09T06:36:43;28.13;;;21.52;;
49131;SDS011;35149;51.196;6.204;2023-05-09T06:39:10;30.90;;;20.63;;
49131;SDS011;35149;51.196;6.204;2023-05-09T06:41:37;27.65;;;19.40;;
49131;SDS011;35149;51.196;6.204;2023-05-09T06:44:06;28.38;;;18.83;;
49131;SDS011;35149;51.196;6.204;2023-05-09T06:46:32;30.48;;;20.92;;
49131;SDS011;35149;51.196;6.204;2023-05-09T06:48:59;31.20;;;22.00;;
49131;SDS011;35149;51.196;6.204;2023-05-09T06:51:27;28.15;;;19.73;;
49131;SDS011;35149;51.196;6.204;2023-05-09T06:53:54;25.42;;;19.40;;
49131;SDS011;35149;51.196;6.204;2023-05-09T06:56:21;27.55;;;19.83;;
49131;SDS011;35149;51.196;6.204;2023-05-09T06:58:48;28.98;;;21.77;;
49131;SDS011;35149;51.196;6.204;2023-05-09T07:01:15;24.67;;;19.08;;
49131;SDS011;35149;51.196;6.204;2023-05-09T07:03:42;27.70;;;19.45;;
49131;SDS011;35149;51.196;6.204;2023-05-09T07:06:09;26.42;;;19.50;;
49131;SDS011;35149;51.196;6.204;2023-05-09T07:08:36;24.80;;;18.25;;
49131;SDS011;35149;51.196;6.204;2023-05-09T07:11:02;23.25;;;17.20;;
49131;SDS011;35149;51.196;6.204;2023-05-09T07:13:29;19.45;;;15.07;;
49131;SDS011;35149;51.196;6.204;2023-05-09T07:15:56;18.30;;;13.90;;
49131;SDS011;35149;51.196;6.204;2023-05-09T07:18:23;20.70;;;14.77;;
49131;SDS011;35149;51.196;6.204;2023-05-09T07:20:49;20.00;;;14.85;;
49131;SDS011;35149;51.196;6.204;2023-05-09T07:23:16;18.30;;;13.65;;
49131;SDS011;35149;51.196;6.204;2023-05-09T07:25:43;18.90;;;14.05;;
49131;SDS011;35149;51.196;6.204;2023-05-09T07:28:10;20.42;;;14.50;;
49131;SDS011;35149;51.196;6.204;2023-05-09T07:30:37;18.38;;;14.02;;
49131;SDS011;35149;51.196;6.204;2023-05-09T07:33:04;18.05;;;13.15;;
49131;SDS011;35149;51.196;6.204;2023-05-09T07:35:31;17.27;;;11.68;;
49131;SDS011;35149;51.196;6.204;2023-05-09T07:37:58;14.90;;;11.85;;
49131;SDS011;35149;51.196;6.204;2023-05-09T07:40:24;14.35;;;11.50;;
49131;SDS011;35149;51.196;6.204;2023-05-09T07:42:51;13.90;;;11.10;;
49131;SDS011;35149;51.196;6.204;2023-05-09T07:45:20;14.32;;;11.95;;
49131;SDS011;35149;51.196;6.204;2023-05-09T07:47:50;15.10;;;11.75;;
49131;SDS011;35149;51.196;6.204;2023-05-09T07:50:17;16.83;;;12.48;;
49131;SDS011;35149;51.196;6.204;2023-05-09T07:52:43;14.15;;;10.77;;
49131;SDS011;35149;51.196;6.204;2023-05-09T07:55:10;13.02;;;9.88;;
49131;SDS011;35149;51.196;6.204;2023-05-09T07:57:37;11.95;;;9.30;;
49131;SDS011;35149;51.196;6.204;2023-05-09T08:00:05;10.60;;;8.98;;
49131;SDS011;35149;51.196;6.204;2023-05-09T08:02:38;12.27;;;9.48;;
49131;SDS011;35149;51.196;6.204;2023-05-09T08:05:05;10.65;;;8.45;;
49131;SDS011;35149;51.196;6.204;2023-05-09T08:07:33;8.85;;;7.43;;
49131;SDS011;35149;51.196;6.204;2023-05-09T08:09:59;9.60;;;8.07;;
49131;SDS011;35149;51.196;6.204;2023-05-09T08:12:26;10.20;;;8.13;;
49131;SDS011;35149;51.196;6.204;2023-05-09T08:14:53;9.90;;;7.07;;
49131;SDS011;35149;51.196;6.204;2023-05-09T08:17:19;7.53;;;6.70;;
49131;SDS011;35149;51.196;6.204;2023-05-09T08:19:46;8.73;;;7.93;;
49131;SDS011;35149;51.196;6.204;2023-05-09T08:22:16;9.93;;;8.18;;
49131;SDS011;35149;51.196;6.204;2023-05-09T08:24:44;8.77;;;7.68;;
49131;SDS011;35149;51.196;6.204;2023-05-09T08:27:11;7.80;;;6.13;;
49131;SDS011;35149;51.196;6.204;2023-05-09T08:29:39;7.03;;;5.70;;
49131;SDS011;35149;51.196;6.204;2023-05-09T08:32:06;5.85;;;5.10;;
49131;SDS011;35149;51.196;6.204;2023-05-09T08:34:33;6.00;;;5.43;;
49131;SDS011;35149;51.196;6.204;2023-05-09T08:37:01;5.68;;;4.85;;
49131;SDS011;35149;51.196;6.204;2023-05-09T08:39:29;5.47;;;4.97;;
49131;SDS011;35149;51.196;6.204;2023-05-09T08:41:59;9.18;;;5.93;;
49131;SDS011;35149;51.196;6.204;2023-05-09T08:44:28;6.82;;;5.57;;
49131;SDS011;35149;51.196;6.204;2023-05-09T08:47:00;6.15;;;5.55;;
49131;SDS011;35149;51.196;6.204;2023-05-09T08:49:28;6.65;;;5.90;;
49131;SDS011;35149;51.196;6.204;2023-05-09T08:51:55;7.10;;;5.50;;
49131;SDS011;35149;51.196;6.204;2023-05-09T08:54:22;8.35;;;6.07;;
49131;SDS011;35149;51.196;6.204;2023-05-09T08:56:50;6.43;;;5.75;;
49131;SDS011;35149;51.196;6.204;2023-05-09T08:59:17;5.20;;;4.70;;
49131;SDS011;35149;51.196;6.204;2023-05-09T09:01:44;6.60;;;4.85;;
49131;SDS011;35149;51.196;6.204;2023-05-09T09:04:11;4.65;;;4.10;;
49131;SDS011;35149;51.196;6.204;2023-05-09T09:06:38;6.68;;;4.97;;
49131;SDS011;35149;51.196;6.204;2023-05-09T09:09:06;5.43;;;4.50;;
49131;SDS011;35149;51.196;6.204;2023-05-09T09:11:34;5.13;;;4.22;;
49131;SDS011;35149;51.196;6.204;2023-05-09T09:14:05;5.40;;;4.90;;
49131;SDS011;35149;51.196;6.204;2023-05-09T09:16:38;4.93;;;4.47;;
49131;SDS011;35149;51.196;6.204;2023-05-09T09:19:10;3.97;;;3.60;;
49131;SDS011;35149;51.196;6.204;2023-05-09T09:21:41;4.32;;;3.92;;
49131;SDS011;35149;51.196;6.204;2023-05-09T09:24:11;4.53;;;3.90;;
49131;SDS011;35149;51.196;6.204;2023-05-09T09:26:45;3.85;;;3.35;;
49131;SDS011;35149;51.196;6.204;2023-05-09T09:29:14;4.07;;;3.50;;
49131;SDS011;35149;51.196;6.204;2023-05-09T09:31:45;3.80;;;3.38;;
49131;SDS011;35149;51.196;6.204;2023-05-09T09:34:13;3.90;;;3.50;;
49131;SDS011;35149;51.196;6.204;2023-05-09T09:36:46;4.45;;;4.05;;
49131;SDS011;35149;51.196;6.204;2023-05-09T09:39:13;4.47;;;3.83;;
49131;SDS011;35149;51.196;6.204;2023-05-09T09:41:40;4.25;;;3.95;;
49131;SDS011;35149;51.196;6.204;2023-05-09T09:46:39;3.97;;;3.42;;
49131;SDS011;35149;51.196;6.204;2023-05-09T09:49:17;3.60;;;3.30;;
49131;SDS011;35149;51.196;6.204;2023-05-09T09:51:49;4.60;;;3.22;;
49131;SDS011;35149;51.196;6.204;2023-05-09T09:54:17;4.40;;;4.00;;
49131;SDS011;35149;51.196;6.204;2023-05-09T09:56:45;3.97;;;3.55;;
49131;SDS011;35149;51.196;6.204;2023-05-09T09:59:14;3.78;;;3.47;;
49131;SDS011;35149;51.196;6.204;2023-05-09T10:04:28;4.55;;;3.88;;
49131;SDS011;35149;51.196;6.204;2023-05-09T10:09:28;3.63;;;3.08;;
49131;SDS011;35149;51.196;6.204;2023-05-09T10:11:55;5.25;;;3.83;;
49131;SDS011;35149;51.196;6.204;2023-05-09T10:14:24;5.68;;;3.88;;
49131;SDS011;35149;51.196;6.204;2023-05-09T10:16:53;5.00;;;3.80;;
49131;SDS011;35149;51.196;6.204;2023-05-09T10:19:25;4.47;;;3.53;;
49131;SDS011;35149;51.196;6.204;2023-05-09T10:21:55;4.15;;;3.85;;
49131;SDS011;35149;51.196;6.204;2023-05-09T10:24:28;4.28;;;3.97;;
49131;SDS011;35149;51.196;6.204;2023-05-09T10:27:06;6.10;;;3.83;;
49131;SDS011;35149;51.196;6.204;2023-05-09T10:29:39;5.05;;;4.07;;
49131;SDS011;35149;51.196;6.204;2023-05-09T10:32:14;4.63;;;3.75;;
49131;SDS011;35149;51.196;6.204;2023-05-09T10:34:45;4.10;;;3.80;;
49131;SDS011;35149;51.196;6.204;2023-05-09T10:37:14;4.20;;;3.72;;
49131;SDS011;35149;51.196;6.204;2023-05-09T10:39:42;5.75;;;4.43;;
49131;SDS011;35149;51.196;6.204;2023-05-09T10:42:09;4.40;;;4.00;;
49131;SDS011;35149;51.196;6.204;2023-05-09T10:44:37;5.28;;;4.07;;
49131;SDS011;35149;51.196;6.204;2023-05-09T10:47:04;4.30;;;3.88;;
49131;SDS011;35149;51.196;6.204;2023-05-09T10:49:32;4.53;;;4.13;;
49131;SDS011;35149;51.196;6.204;2023-05-09T10:52:02;4.38;;;3.13;;
49131;SDS011;35149;51.196;6.204;2023-05-09T10:54:29;4.03;;;3.63;;
49131;SDS011;35149;51.196;6.204;2023-05-09T10:56:59;4.03;;;3.63;;
49131;SDS011;35149;51.196;6.204;2023-05-09T10:59:41;3.00;;;2.80;;
49131;SDS011;35149;51.196;6.204;2023-05-09T11:02:10;3.58;;;3.28;;
49131;SDS011;35149;51.196;6.204;2023-05-09T11:04:39;4.90;;;3.53;;
49131;SDS011;35149;51.196;6.204;2023-05-09T11:07:21;3.80;;;3.25;;
49131;SDS011;35149;51.196;6.204;2023-05-09T11:12:55;3.40;;;3.10;;
49131;SDS011;35149;51.196;6.204;2023-05-09T11:15:24;3.92;;;3.28;;
49131;SDS011;35149;51.196;6.204;2023-05-09T11:18:03;4.07;;;3.30;;
49131;SDS011;35149;51.196;6.204;2023-05-09T11:20:43;3.08;;;2.78;;
49131;SDS011;35149;51.196;6.204;2023-05-09T11:23:10;3.70;;;3.38;;
49131;SDS011;35149;51.196;6.204;2023-05-09T11:25:38;3.65;;;3.35;;
49131;SDS011;35149;51.196;6.204;2023-05-09T11:28:04;4.63;;;3.00;;
49131;SDS011;35149;51.196;6.204;2023-05-09T11:30:35;3.30;;;3.10;;
49131;SDS011;35149;51.196;6.204;2023-05-09T11:33:21;3.83;;;3.33;;
49131;SDS011;35149;51.196;6.204;2023-05-09T11:38:44;3.40;;;2.95;;
49131;SDS011;35149;51.196;6.204;2023-05-09T11:41:14;4.60;;;3.22;;
49131;SDS011;35149;51.196;6.204;2023-05-09T11:43:41;3.70;;;3.40;;
49131;SDS011;35149;51.196;6.204;2023-05-09T11:46:09;3.67;;;3.28;;
49131;SDS011;35149;51.196;6.204;2023-05-09T11:48:37;3.88;;;3.55;;
49131;SDS011;35149;51.196;6.204;2023-05-09T11:51:04;3.92;;;3.63;;
49131;SDS011;35149;51.196;6.204;2023-05-09T11:53:32;5.50;;;4.40;;
49131;SDS011;35149;51.196;6.204;2023-05-09T11:56:02;6.20;;;3.90;;
49131;SDS011;35149;51.196;6.204;2023-05-09T11:58:30;4.40;;;4.00;;
49131;SDS011;35149;51.196;6.204;2023-05-09T12:00:56;5.32;;;4.53;;
49131;SDS011;35149;51.196;6.204;2023-05-09T12:03:23;4.53;;;4.15;;
49131;SDS011;35149;51.196;6.204;2023-05-09T12:05:51;4.57;;;4.18;;
49131;SDS011;35149;51.196;6.204;2023-05-09T12:08:19;4.05;;;3.72;;
49131;SDS011;35149;51.196;6.204;2023-05-09T12:10:47;3.95;;;3.65;;
49131;SDS011;35149;51.196;6.204;2023-05-09T12:13:14;4.50;;;4.20;;
49131;SDS011;35149;51.196;6.204;2023-05-09T12:15:41;4.07;;;3.65;;
49131;SDS011;35149;51.196;6.204;2023-05-09T12:18:11;6.18;;;3.83;;
49131;SDS011;35149;51.196;6.204;2023-05-09T12:20:45;4.25;;;3.88;;
49131;SDS011;35149;51.196;6.204;2023-05-09T12:23:13;4.38;;;4.00;;
49131;SDS011;35149;51.196;6.204;2023-05-09T12:26:14;4.38;;;3.95;;
49131;SDS011;35149;51.196;6.204;2023-05-09T12:28:33;4.55;;;4.10;;
49131;SDS011;35149;51.196;6.204;2023-05-09T12:31:03;4.28;;;3.85;;
49131;SDS011;35149;51.196;6.204;2023-05-09T12:33:31;4.78;;;4.38;;
49131;SDS011;35149;51.196;6.204;2023-05-09T12:36:08;4.38;;;3.97;;
49131;SDS011;35149;51.196;6.204;2023-05-09T12:38:36;6.35;;;3.95;;
49131;SDS011;35149;51.196;6.204;2023-05-09T12:41:04;5.72;;;4.38;;
49131;SDS011;35149;51.196;6.204;2023-05-09T12:43:55;4.70;;;4.20;;
49131;SDS011;35149;51.196;6.204;2023-05-09T12:46:21;5.60;;;4.22;;
49131;SDS011;35149;51.196;6.204;2023-05-09T12:48:48;3.97;;;3.67;;
49131;SDS011;35149;51.196;6.204;2023-05-09T12:51:18;5.88;;;4.72;;
49131;SDS011;35149;51.196;6.204;2023-05-09T12:53:46;4.60;;;4.20;;
49131;SDS011;35149;51.196;6.204;2023-05-09T12:56:13;4.05;;;3.75;;
49131;SDS011;35149;51.196;6.204;2023-05-09T12:58:48;4.43;;;4.07;;
49131;SDS011;35149;51.196;6.204;2023-05-09T13:01:19;4.32;;;3.63;;
49131;SDS011;35149;51.196;6.204;2023-05-09T13:04:05;3.05;;;2.75;;
49131;SDS011;35149;51.196;6.204;2023-05-09T13:06:32;2.72;;;2.53;;
49131;SDS011;35149;51.196;6.204;2023-05-09T13:09:02;3.05;;;2.10;;
49131;SDS011;35149;51.196;6.204;2023-05-09T13:11:31;1.75;;;1.65;;
49131;SDS011;35149;51.196;6.204;2023-05-09T13:13:57;1.77;;;1.67;;
49131;SDS011;35149;51.196;6.204;2023-05-09T13:16:25;1.30;;;1.20;;
49131;SDS011;35149;51.196;6.204;2023-05-09T13:18:52;1.27;;;1.20;;
49131;SDS011;35149;51.196;6.204;2023-05-09T13:21:18;1.50;;;1.40;;
49131;SDS011;35149;51.196;6.204;2023-05-09T13:23:45;1.60;;;1.50;;
49131;SDS011;35149;51.196;6.204;2023-05-09T13:26:14;1.98;;;1.80;;
49131;SDS011;35149;51.196;6.204;2023-05-09T13:28:41;2.63;;;1.95;;
49131;SDS011;35149;51.196;6.204;2023-05-09T13:31:10;1.65;;;1.55;;
49131;SDS011;35149;51.196;6.204;2023-05-09T13:33:37;1.65;;;1.55;;
49131;SDS011;35149;51.196;6.204;2023-05-09T13:36:05;1.50;;;1.40;;
49131;SDS011;35149;51.196;6.204;2023-05-09T13:38:32;1.48;;;1.38;;
49131;SDS011;35149;51.196;6.204;2023-05-09T13:41:03;1.55;;;1.30;;
49131;SDS011;35149;51.196;6.204;2023-05-09T13:43:33;1.23;;;1.13;;
49131;SDS011;35149;51.196;6.204;2023-05-09T13:46:01;1.60;;;1.50;;
49131;SDS011;35149;51.196;6.204;2023-05-09T13:48:29;2.30;;;1.70;;
49131;SDS011;35149;51.196;6.204;2023-05-09T13:50:56;2.05;;;1.42;;
49131;SDS011;35149;51.196;6.204;2023-05-09T13:53:27;1.75;;;1.35;;
49131;SDS011;35149;51.196;6.204;2023-05-09T13:55:56;1.42;;;1.33;;
49131;SDS011;35149;51.196;6.204;2023-05-09T13:58:23;1.70;;;1.58;;
49131;SDS011;35149;51.196;6.204;2023-05-09T14:00:50;1.08;;;1.08;;
49131;SDS011;35149;51.196;6.204;2023-05-09T14:03:18;3.25;;;2.20;;
49131;SDS011;35149;51.196;6.204;2023-05-09T14:05:45;2.40;;;2.13;;
49131;SDS011;35149;51.196;6.204;2023-05-09T14:08:16;2.35;;;2.00;;
49131;SDS011;35149;51.196;6.204;2023-05-09T14:10:42;1.77;;;1.67;;
49131;SDS011;35149;51.196;6.204;2023-05-09T14:13:12;2.30;;;2.10;;
49131;SDS011;35149;51.196;6.204;2023-05-09T14:15:40;2.05;;;1.48;;
49131;SDS011;35149;51.196;6.204;2023-05-09T14:18:07;1.70;;;1.60;;
49131;SDS011;35149;51.196;6.204;2023-05-09T14:20:33;2.22;;;1.60;;
49131;SDS011;35149;51.196;6.204;2023-05-09T14:23:03;1.80;;;1.70;;
49131;SDS011;35149;51.196;6.204;2023-05-09T14:25:30;1.65;;;1.10;;
49131;SDS011;35149;51.196;6.204;2023-05-09T14:27:56;2.08;;;1.10;;
49131;SDS011;35149;51.196;6.204;2023-05-09T14:30:24;1.90;;;1.00;;
49131;SDS011;35149;51.196;6.204;2023-05-09T14:32:51;0.82;;;0.82;;
49131;SDS011;35149;51.196;6.204;2023-05-09T14:35:21;1.45;;;1.15;;
49131;SDS011;35149;51.196;6.204;2023-05-09T14:37:48;1.48;;;1.38;;
49131;SDS011;35149;51.196;6.204;2023-05-09T14:40:14;2.03;;;1.13;;
49131;SDS011;35149;51.196;6.204;2023-05-09T14:42:41;1.42;;;1.35;;
49131;SDS011;35149;51.196;6.204;2023-05-09T14:45:09;2.17;;;1.75;;
49131;SDS011;35149;51.196;6.204;2023-05-09T14:47:37;1.83;;;1.25;;
49131;SDS011;35149;51.196;6.204;2023-05-09T14:50:07;1.88;;;1.20;;
49131;SDS011;35149;51.196;6.204;2023-05-09T14:52:36;2.20;;;1.40;;
49131;SDS011;35149;51.196;6.204;2023-05-09T14:55:03;3.53;;;1.33;;
49131;SDS011;35149;51.196;6.204;2023-05-09T14:57:31;3.78;;;1.42;;
49131;SDS011;35149;51.196;6.204;2023-05-09T14:59:58;1.48;;;1.35;;
49131;SDS011;35149;51.196;6.204;2023-05-09T15:02:44;4.60;;;2.10;;
49131;SDS011;35149;51.196;6.204;2023-05-09T15:05:11;1.27;;;1.20;;